No particular awareness of the weather is required.    There are no Weather-warnings


Meteo18 Weather Cam more information Meteo18 Weather Cam


Thunder radar more information blitzortung!


Rain radar more information rain snow radar


Visit our other weather sites:

Template documentation
and downloads

And another site



Weather Underground History page Text

Daily Summary for November 26, 2017 Units:  Metric    English   Both
« Previous Day
Next Day »
Daily Weekly Monthly Yearly Custom
  High: Low: Average:
Temperature: 6.3 °C -1.4 °C 2.1 °C
Dew Point: 3.4 °C -2.1 °C 0.8 °C
Humidity: 97 % 77 % 91 %
Wind Speed: 17.7 km/h 0.0 km/h 4 km/h
Wind Gust: 20.9 km/h - -
Wind:- - WSW
Pressure: 1031.0 hPa 1026.0 hPa -
Precipitation: 0.3 mm    
Historical Graphs
 
 
Tabular Data for November 26, 2017
Time Temperature Dew Point Pressure Wind Wind Speed Wind Gust Humidity Rainfall Rate (Hourly)
00:02 1.1 °C -0.2 °C 1026.0 hPa Calm     91 % 0.0 mm
00:07 1.2 °C 0.0 °C 1026.0 hPa Calm   1.6 km/h 92 % 0.0 mm
00:12 1.3 °C 0.1 °C 1026.3 hPa Calm   1.6 km/h 92 % 0.0 mm
00:17 1.4 °C 0.2 °C 1026.3 hPa Calm   1.6 km/h 92 % 0.0 mm
00:22 1.4 °C 0.1 °C 1026.3 hPa Calm   1.6 km/h 91 % 0.0 mm
00:32 1.4 °C 0.2 °C 1026.3 hPa West 1.6 km/h 1.6 km/h 92 % 0.0 mm
00:37 1.4 °C 0.1 °C 1026.3 hPa SW 1.6 km/h 1.6 km/h 91 % 0.0 mm
00:42 1.5 °C 0.3 °C 1026.3 hPa Calm   3.2 km/h 92 % 0.0 mm
00:52 1.3 °C 0.0 °C 1026.3 hPa Calm   3.2 km/h 91 % 0.0 mm
01:02 1.2 °C 0.0 °C 1026.3 hPa Calm   1.6 km/h 92 % 0.0 mm
01:12 1.4 °C 0.2 °C 1026.3 hPa Calm   3.2 km/h 92 % 0.0 mm
01:22 1.5 °C 0.2 °C 1026.3 hPa Calm   6.4 km/h 91 % 0.0 mm
01:32 1.3 °C 0.0 °C 1026.3 hPa WSW 1.6 km/h 1.6 km/h 91 % 0.0 mm
01:42 1.3 °C 0.0 °C 1026.3 hPa SSW 1.6 km/h 1.6 km/h 91 % 0.0 mm
01:52 1.2 °C -0.1 °C 1026.3 hPa Calm   4.8 km/h 91 % 0.0 mm
01:57 1.1 °C -0.2 °C 1026.3 hPa SW 1.6 km/h 6.4 km/h 91 % 0.0 mm
02:02 1.0 °C -0.2 °C 1026.3 hPa SW 4.8 km/h 6.4 km/h 92 % 0.0 mm
02:12 1.1 °C -0.1 °C 1026.6 hPa SW 3.2 km/h 8.0 km/h 92 % 0.0 mm
02:17 0.9 °C -0.3 °C 1026.6 hPa SW 4.8 km/h 8.0 km/h 92 % 0.0 mm
02:22 0.8 °C -0.4 °C 1026.6 hPa SSW 3.2 km/h 8.0 km/h 92 % 0.0 mm
02:27 0.7 °C -0.5 °C 1026.6 hPa SW 6.4 km/h 8.0 km/h 92 % 0.0 mm
02:42 1.1 °C 0.1 °C 1026.6 hPa West 3.2 km/h 8.0 km/h 93 % 0.0 mm
02:52 1.2 °C 0.0 °C 1027.0 hPa SW 3.2 km/h 8.0 km/h 92 % 0.0 mm
02:57 1.2 °C 0.0 °C 1027.0 hPa WSW 3.2 km/h 6.4 km/h 92 % 0.0 mm
03:02 1.1 °C -0.1 °C 1027.0 hPa SW 3.2 km/h 6.4 km/h 92 % 0.0 mm
03:07 1.1 °C -0.1 °C 1027.0 hPa WSW 4.8 km/h 6.4 km/h 92 % 0.0 mm
03:12 1.1 °C -0.1 °C 1027.0 hPa West 4.8 km/h 6.4 km/h 92 % 0.0 mm
03:17 1.1 °C -0.1 °C 1027.0 hPa WSW 1.6 km/h 8.0 km/h 92 % 0.0 mm
03:22 0.8 °C -0.5 °C 1027.3 hPa Calm   8.0 km/h 91 % 0.0 mm
03:27 0.5 °C -0.8 °C 1027.0 hPa Calm   8.0 km/h 91 % 0.0 mm
03:37 0.3 °C -0.7 °C 1027.0 hPa SW 4.8 km/h 4.8 km/h 93 % 0.0 mm
03:42 0.2 °C -0.8 °C 1027.0 hPa SSW 3.2 km/h 3.2 km/h 93 % 0.0 mm
03:47 0.0 °C -1.1 °C 1027.0 hPa SW 4.8 km/h 6.4 km/h 92 % 0.0 mm
03:52 -0.1 °C -1.1 °C 1027.0 hPa SW 1.6 km/h 6.4 km/h 93 % 0.0 mm
03:57 -0.3 °C -1.3 °C 1027.0 hPa SSW 4.8 km/h 9.7 km/h 93 % 0.0 mm
04:02 -0.4 °C -1.4 °C 1027.0 hPa SSW 1.6 km/h 9.7 km/h 93 % 0.0 mm
04:12 -0.7 °C -1.5 °C 1027.0 hPa SSW 3.2 km/h 8.0 km/h 94 % 0.0 mm
04:17 -0.8 °C -1.6 °C 1027.0 hPa SSW 1.6 km/h 6.4 km/h 94 % 0.0 mm
04:22 -0.9 °C -1.7 °C 1027.0 hPa SW 1.6 km/h 6.4 km/h 94 % 0.0 mm
04:27 -1.1 °C -1.9 °C 1027.3 hPa SW 8.0 km/h 8.0 km/h 94 % 0.0 mm
04:32 -0.9 °C -1.6 °C 1027.0 hPa SW 4.8 km/h 8.0 km/h 95 % 0.0 mm
04:42 -0.7 °C -1.4 °C 1027.3 hPa SW 4.8 km/h 11.3 km/h 95 % 0.0 mm
04:47 -0.8 °C -1.5 °C 1027.3 hPa SW 1.6 km/h 8.0 km/h 95 % 0.0 mm
04:52 -0.7 °C -1.4 °C 1027.7 hPa SW 1.6 km/h 8.0 km/h 95 % 0.0 mm
05:02 -0.7 °C -1.4 °C 1027.7 hPa SW 1.6 km/h 8.0 km/h 95 % 0.0 mm
05:12 -0.8 °C -1.5 °C 1027.7 hPa Calm   8.0 km/h 95 % 0.0 mm
05:17 -0.7 °C -1.3 °C 1027.7 hPa Calm   6.4 km/h 96 % 0.0 mm
05:22 -0.7 °C -1.3 °C 1027.7 hPa SW 1.6 km/h 6.4 km/h 96 % 0.0 mm
05:32 -0.8 °C -1.5 °C 1027.7 hPa SW 6.4 km/h 6.4 km/h 95 % 0.0 mm
05:37 -0.7 °C -1.3 °C 1027.7 hPa SW 8.0 km/h 8.0 km/h 96 % 0.0 mm
05:42 -0.8 °C -1.5 °C 1027.7 hPa WSW 1.6 km/h 8.0 km/h 95 % 0.0 mm
05:47 -1.0 °C -1.7 °C 1027.7 hPa SSW 4.8 km/h 8.0 km/h 95 % 0.0 mm
05:52 -1.2 °C -1.9 °C 1027.7 hPa SSW 3.2 km/h 8.0 km/h 95 % 0.0 mm
06:02 -1.4 °C -2.1 °C 1027.7 hPa SSW 4.8 km/h 6.4 km/h 95 % 0.0 mm
06:12 -1.4 °C -2.0 °C 1027.7 hPa SW 4.8 km/h 9.7 km/h 96 % 0.0 mm
06:17 -1.3 °C -1.9 °C 1027.7 hPa SW 6.4 km/h 9.7 km/h 96 % 0.0 mm
06:22 -1.3 °C -1.9 °C 1027.7 hPa SW 8.0 km/h 9.7 km/h 96 % 0.0 mm
06:27 -1.2 °C -1.8 °C 1027.7 hPa SW 4.8 km/h 11.3 km/h 96 % 0.0 mm
06:32 -1.2 °C -1.8 °C 1027.7 hPa SSW 4.8 km/h 11.3 km/h 96 % 0.0 mm
06:37 -1.2 °C -1.8 °C 1027.7 hPa WSW 8.0 km/h 11.3 km/h 96 % 0.0 mm
06:42 -1.2 °C -1.8 °C 1027.7 hPa SW 6.4 km/h 11.3 km/h 96 % 0.0 mm
06:47 -1.3 °C -1.9 °C 1027.7 hPa SW 4.8 km/h 11.3 km/h 96 % 0.0 mm
06:52 -1.3 °C -1.9 °C 1027.7 hPa SW 4.8 km/h 11.3 km/h 96 % 0.0 mm
07:02 -1.3 °C -1.9 °C 1027.7 hPa SSW 3.2 km/h 9.7 km/h 96 % 0.0 mm
07:12 -1.2 °C -1.8 °C 1027.7 hPa SSW 4.8 km/h 9.7 km/h 96 % 0.0 mm
07:17 -1.1 °C -1.7 °C 1027.7 hPa SSW 1.6 km/h 8.0 km/h 96 % 0.0 mm
07:22 -1.1 °C -1.5 °C 1027.7 hPa SW 3.2 km/h 8.0 km/h 97 % 0.0 mm
07:27 -1.0 °C -1.4 °C 1027.7 hPa SSW 3.2 km/h 6.4 km/h 97 % 0.0 mm
07:32 -0.9 °C -1.3 °C 1027.7 hPa SSW 1.6 km/h 6.4 km/h 97 % 0.0 mm
07:42 -0.8 °C -1.2 °C 1028.0 hPa Calm   4.8 km/h 97 % 0.0 mm
07:47 -0.6 °C -1.0 °C 1028.0 hPa SSW 1.6 km/h 4.8 km/h 97 % 0.0 mm
07:57 -0.3 °C -0.7 °C 1028.0 hPa WSW 1.6 km/h 9.7 km/h 97 % 0.0 mm
08:02 -0.2 °C -0.6 °C 1028.0 hPa WSW 6.4 km/h 9.7 km/h 97 % 0.0 mm
08:12 -0.1 °C -0.5 °C 1028.3 hPa SW 11.3 km/h 11.3 km/h 97 % 0.0 mm
08:17 -0.1 °C -0.5 °C 1028.3 hPa WSW 4.8 km/h 12.9 km/h 97 % 0.0 mm
08:22 -0.1 °C -0.5 °C 1028.3 hPa SW 1.6 km/h 12.9 km/h 97 % 0.0 mm
08:32 -0.1 °C -0.5 °C 1028.3 hPa WSW 6.4 km/h 12.9 km/h 97 % 0.0 mm
08:42 -0.1 °C -0.5 °C 1028.3 hPa SW 1.6 km/h 11.3 km/h 97 % 0.0 mm
08:47 -0.1 °C -0.5 °C 1028.7 hPa WSW 6.4 km/h 9.7 km/h 97 % 0.0 mm
08:52 -0.1 °C -0.5 °C 1028.7 hPa West 9.7 km/h 9.7 km/h 97 % 0.0 mm
09:02 -0.1 °C -0.5 °C 1028.7 hPa WSW 4.8 km/h 12.9 km/h 97 % 0.0 mm
09:07 0.0 °C -0.4 °C 1028.7 hPa West 6.4 km/h 12.9 km/h 97 % 0.0 mm
09:12 0.0 °C -0.4 °C 1028.7 hPa SW 8.0 km/h 12.9 km/h 97 % 0.0 mm
09:17 0.1 °C -0.3 °C 1028.7 hPa WSW 3.2 km/h 11.3 km/h 97 % 0.0 mm
09:22 0.1 °C -0.3 °C 1028.7 hPa WSW 8.0 km/h 11.3 km/h 97 % 0.0 mm
09:32 0.1 °C -0.3 °C 1029.0 hPa WSW 3.2 km/h 11.3 km/h 97 % 0.0 mm
09:42 0.1 °C -0.3 °C 1029.0 hPa Calm   11.3 km/h 97 % 0.0 mm
09:47 0.1 °C -0.3 °C 1029.3 hPa Calm   6.4 km/h 97 % 0.0 mm
09:52 0.1 °C -0.3 °C 1029.3 hPa SSE 1.6 km/h 6.4 km/h 97 % 0.0 mm
09:57 0.2 °C -0.2 °C 1029.3 hPa SSW 3.2 km/h 9.7 km/h 97 % 0.0 mm
10:02 0.2 °C -0.2 °C 1029.3 hPa WSW 4.8 km/h 9.7 km/h 97 % 0.0 mm
10:07 0.3 °C -0.1 °C 1029.3 hPa SW 3.2 km/h 6.4 km/h 97 % 0.3 mm
10:17 0.4 °C 0.0 °C 1029.7 hPa SSW 4.8 km/h 6.4 km/h 97 % 0.3 mm
10:22 0.4 °C 0.0 °C 1029.7 hPa Calm   6.4 km/h 97 % 0.3 mm
10:32 0.5 °C 0.1 °C 1029.7 hPa Calm   9.7 km/h 97 % 0.3 mm
10:42 0.7 °C 0.3 °C 1029.7 hPa Calm   8.0 km/h 97 % 0.3 mm
10:47 0.8 °C 0.4 °C 1029.7 hPa SW 1.6 km/h 6.4 km/h 97 % 0.3 mm
10:57 1.1 °C 0.7 °C 1029.7 hPa WSW 3.2 km/h 3.2 km/h 97 % 0.0 mm
11:02 1.1 °C 0.7 °C 1029.7 hPa WSW 4.8 km/h 4.8 km/h 97 % 0.0 mm
11:12 1.2 °C 0.8 °C 1029.7 hPa WSW 6.4 km/h 9.7 km/h 97 % 0.0 mm
11:17 1.3 °C 0.9 °C 1029.7 hPa WSW 6.4 km/h 9.7 km/h 97 % 0.0 mm
11:22 1.6 °C 1.2 °C 1029.7 hPa West 1.6 km/h 9.7 km/h 97 % 0.0 mm
11:32 2.3 °C 1.9 °C 1029.7 hPa WNW 1.6 km/h 11.3 km/h 97 % 0.0 mm
11:37 2.6 °C 2.2 °C 1029.7 hPa WSW 4.8 km/h 9.7 km/h 97 % 0.0 mm
11:47 2.9 °C 2.5 °C 1029.7 hPa SW 1.6 km/h 11.3 km/h 97 % 0.0 mm
11:52 2.9 °C 2.5 °C 1029.7 hPa West 4.8 km/h 11.3 km/h 97 % 0.0 mm
12:02 2.7 °C 2.1 °C 1029.7 hPa West 3.2 km/h 11.3 km/h 96 % 0.0 mm
12:07 2.6 °C 1.9 °C 1029.7 hPa SW 6.4 km/h 12.9 km/h 95 % 0.0 mm
12:12 2.7 °C 2.0 °C 1029.7 hPa SSW 3.2 km/h 12.9 km/h 95 % 0.0 mm
12:17 2.9 °C 2.3 °C 1029.7 hPa SSW 1.6 km/h 12.9 km/h 96 % 0.0 mm
12:22 3.1 °C 2.4 °C 1029.7 hPa WSW 4.8 km/h 12.9 km/h 95 % 0.0 mm
12:37 3.1 °C 1.9 °C 1029.7 hPa WSW 4.8 km/h 11.3 km/h 92 % 0.0 mm
12:42 2.9 °C 1.9 °C 1029.7 hPa WSW 6.4 km/h 11.3 km/h 93 % 0.0 mm
12:52 2.9 °C 2.0 °C 1029.7 hPa SSE 6.4 km/h 14.5 km/h 94 % 0.0 mm
12:57 2.8 °C 1.8 °C 1029.7 hPa SSW 3.2 km/h 11.3 km/h 93 % 0.0 mm
13:02 2.9 °C 2.0 °C 1029.7 hPa South 3.2 km/h 11.3 km/h 94 % 0.0 mm
13:12 3.5 °C 2.8 °C 1029.7 hPa WSW 9.7 km/h 9.7 km/h 95 % 0.0 mm
13:22 4.0 °C 2.7 °C 1029.7 hPa West 11.3 km/h 12.9 km/h 91 % 0.0 mm
13:32 4.3 °C 2.8 °C 1029.7 hPa WNW 9.7 km/h 14.5 km/h 90 % 0.0 mm
13:42 4.7 °C 2.9 °C 1029.3 hPa NW 1.6 km/h 14.5 km/h 88 % 0.0 mm
13:47 4.8 °C 2.7 °C 1029.3 hPa NW 4.8 km/h 12.9 km/h 86 % 0.0 mm
13:52 4.8 °C 2.5 °C 1029.3 hPa NW 3.2 km/h 12.9 km/h 85 % 0.0 mm
13:57 5.1 °C 2.8 °C 1029.3 hPa WNW 3.2 km/h 16.1 km/h 85 % 0.0 mm
14:02 5.1 °C 2.6 °C 1029.3 hPa West 6.4 km/h 16.1 km/h 84 % 0.0 mm
14:12 5.2 °C 2.5 °C 1029.3 hPa WSW 3.2 km/h 12.9 km/h 83 % 0.0 mm
14:17 5.3 °C 2.8 °C 1029.3 hPa West 3.2 km/h 14.5 km/h 84 % 0.0 mm
14:27 5.5 °C 2.8 °C 1029.3 hPa West 8.0 km/h 14.5 km/h 83 % 0.0 mm
14:32 5.6 °C 3.1 °C 1029.3 hPa West 6.4 km/h 14.5 km/h 84 % 0.0 mm
14:42 5.7 °C 3.2 °C 1029.3 hPa SW 8.0 km/h 16.1 km/h 84 % 0.0 mm
14:47 5.8 °C 3.1 °C 1029.3 hPa West 6.4 km/h 16.1 km/h 83 % 0.0 mm
14:57 5.8 °C 3.1 °C 1029.3 hPa West 9.7 km/h 12.9 km/h 83 % 0.0 mm
15:02 6.0 °C 3.0 °C 1029.3 hPa West 4.8 km/h 12.9 km/h 81 % 0.0 mm
15:12 6.3 °C 3.3 °C 1029.3 hPa SW 4.8 km/h 12.9 km/h 81 % 0.0 mm
15:17 6.2 °C 3.4 °C 1029.3 hPa SW 6.4 km/h 14.5 km/h 82 % 0.0 mm
15:22 6.2 °C 2.6 °C 1029.3 hPa WNW 17.7 km/h 17.7 km/h 78 % 0.0 mm
15:27 6.3 °C 2.6 °C 1029.3 hPa West 12.9 km/h 20.9 km/h 77 % 0.0 mm
15:32 6.3 °C 2.6 °C 1029.3 hPa West 12.9 km/h 20.9 km/h 77 % 0.0 mm
15:37 6.2 °C 2.6 °C 1029.3 hPa WNW 3.2 km/h 20.9 km/h 78 % 0.0 mm
15:42 6.1 °C 2.7 °C 1029.7 hPa WNW 4.8 km/h 20.9 km/h 79 % 0.0 mm
15:52 5.9 °C 2.4 °C 1029.7 hPa West 8.0 km/h 17.7 km/h 78 % 0.0 mm
15:57 5.8 °C 2.6 °C 1029.7 hPa West 8.0 km/h 16.1 km/h 80 % 0.0 mm
16:02 5.7 °C 2.9 °C 1029.7 hPa West 8.0 km/h 16.1 km/h 82 % 0.0 mm
16:07 5.6 °C 2.9 °C 1029.7 hPa West 8.0 km/h 12.9 km/h 83 % 0.0 mm
16:12 5.5 °C 2.8 °C 1029.7 hPa West 6.4 km/h 12.9 km/h 83 % 0.0 mm
16:17 5.4 °C 2.7 °C 1029.7 hPa West 3.2 km/h 12.9 km/h 83 % 0.0 mm
16:22 5.4 °C 2.7 °C 1029.7 hPa WSW 4.8 km/h 12.9 km/h 83 % 0.0 mm
16:27 5.3 °C 2.8 °C 1029.7 hPa West 6.4 km/h 12.9 km/h 84 % 0.0 mm
16:32 5.3 °C 2.8 °C 1029.7 hPa West 6.4 km/h 12.9 km/h 84 % 0.0 mm
16:37 5.2 °C 2.7 °C 1029.7 hPa WSW 1.6 km/h 9.7 km/h 84 % 0.0 mm
16:42 5.2 °C 2.7 °C 1029.7 hPa WSW 4.8 km/h 9.7 km/h 84 % 0.0 mm
16:47 5.1 °C 2.8 °C 1029.7 hPa WSW 4.8 km/h 11.3 km/h 85 % 0.0 mm
16:52 5.1 °C 2.8 °C 1030.0 hPa West 3.2 km/h 11.3 km/h 85 % 0.0 mm
16:57 4.9 °C 2.6 °C 1030.0 hPa WSW 4.8 km/h 9.7 km/h 85 % 0.0 mm
17:02 4.9 °C 2.8 °C 1030.0 hPa WSW 3.2 km/h 9.7 km/h 86 % 0.0 mm
17:12 4.7 °C 2.7 °C 1030.0 hPa West 6.4 km/h 9.7 km/h 87 % 0.0 mm
17:17 4.6 °C 2.6 °C 1030.4 hPa WNW 3.2 km/h 6.4 km/h 87 % 0.0 mm
17:22 4.4 °C 2.4 °C 1030.4 hPa West 1.6 km/h 6.4 km/h 87 % 0.0 mm
17:27 4.3 °C 2.5 °C 1030.4 hPa WSW 3.2 km/h 6.4 km/h 88 % 0.0 mm
17:32 4.3 °C 2.3 °C 1030.4 hPa WNW 4.8 km/h 6.4 km/h 87 % 0.0 mm
17:42 4.2 °C 2.4 °C 1030.4 hPa West 3.2 km/h 6.4 km/h 88 % 0.0 mm
17:52 4.1 °C 2.3 °C 1030.4 hPa West 4.8 km/h 6.4 km/h 88 % 0.0 mm
17:57 4.1 °C 2.3 °C 1030.4 hPa West 4.8 km/h 8.0 km/h 88 % 0.0 mm
18:02 4.0 °C 2.0 °C 1030.4 hPa West 3.2 km/h 8.0 km/h 87 % 0.0 mm
18:12 4.1 °C 2.1 °C 1030.4 hPa West 4.8 km/h 8.0 km/h 87 % 0.0 mm
18:17 4.0 °C 2.0 °C 1030.7 hPa West 4.8 km/h 9.7 km/h 87 % 0.0 mm
18:22 3.9 °C 1.9 °C 1030.7 hPa West 4.8 km/h 9.7 km/h 87 % 0.0 mm
18:32 3.9 °C 1.9 °C 1030.4 hPa West 6.4 km/h 9.7 km/h 87 % 0.0 mm
18:37 3.9 °C 1.9 °C 1030.7 hPa West 6.4 km/h 9.7 km/h 87 % 0.0 mm
18:42 3.9 °C 1.9 °C 1030.7 hPa WSW 6.4 km/h 11.3 km/h 87 % 0.0 mm
18:47 4.0 °C 2.0 °C 1030.7 hPa West 6.4 km/h 11.3 km/h 87 % 0.0 mm
18:52 4.0 °C 2.0 °C 1030.7 hPa West 4.8 km/h 11.3 km/h 87 % 0.0 mm
18:57 4.1 °C 2.1 °C 1030.7 hPa WSW 4.8 km/h 11.3 km/h 87 % 0.0 mm
19:07 4.1 °C 2.1 °C 1030.7 hPa West 9.7 km/h 11.3 km/h 87 % 0.0 mm
19:12 4.1 °C 2.1 °C 1030.7 hPa West 6.4 km/h 11.3 km/h 87 % 0.0 mm
19:17 4.0 °C 2.2 °C 1030.7 hPa WSW 6.4 km/h 11.3 km/h 88 % 0.0 mm
19:22 3.9 °C 2.1 °C 1030.7 hPa WSW 8.0 km/h 11.3 km/h 88 % 0.0 mm
19:27 3.9 °C 2.1 °C 1030.7 hPa West 4.8 km/h 11.3 km/h 88 % 0.0 mm
19:32 3.8 °C 2.0 °C 1030.7 hPa West 4.8 km/h 11.3 km/h 88 % 0.0 mm
19:37 3.7 °C 1.9 °C 1030.7 hPa West 4.8 km/h 11.3 km/h 88 % 0.0 mm
19:42 3.6 °C 1.8 °C 1030.7 hPa WNW 3.2 km/h 11.3 km/h 88 % 0.0 mm
19:47 3.6 °C 1.8 °C 1030.7 hPa West 4.8 km/h 11.3 km/h 88 % 0.0 mm
19:57 3.6 °C 1.8 °C 1030.7 hPa WNW 6.4 km/h 11.3 km/h 88 % 0.0 mm
20:07 3.7 °C 2.1 °C 1030.4 hPa WSW 3.2 km/h 11.3 km/h 89 % 0.0 mm
20:12 3.7 °C 2.1 °C 1030.7 hPa West 4.8 km/h 11.3 km/h 89 % 0.0 mm
20:17 3.6 °C 2.0 °C 1030.7 hPa West 4.8 km/h 12.9 km/h 89 % 0.0 mm
20:22 3.6 °C 2.0 °C 1030.7 hPa WSW 8.0 km/h 12.9 km/h 89 % 0.0 mm
20:27 3.6 °C 2.0 °C 1030.7 hPa West 4.8 km/h 9.7 km/h 89 % 0.0 mm
20:32 3.5 °C 1.9 °C 1030.7 hPa West 4.8 km/h 9.7 km/h 89 % 0.0 mm
20:42 3.7 °C 2.1 °C 1030.7 hPa West 4.8 km/h 11.3 km/h 89 % 0.0 mm
20:52 3.6 °C 2.0 °C 1030.7 hPa WSW 3.2 km/h 11.3 km/h 89 % 0.0 mm
20:57 3.5 °C 1.9 °C 1030.7 hPa West 6.4 km/h 12.9 km/h 89 % 0.0 mm
21:02 3.3 °C 1.7 °C 1030.7 hPa WNW 4.8 km/h 12.9 km/h 89 % 0.0 mm
21:07 3.2 °C 1.6 °C 1030.7 hPa WSW 4.8 km/h 12.9 km/h 89 % 0.0 mm
21:17 3.1 °C 1.6 °C 1030.7 hPa West 6.4 km/h 8.0 km/h 90 % 0.0 mm
21:22 3.1 °C 1.6 °C 1030.7 hPa WSW 3.2 km/h 8.0 km/h 90 % 0.0 mm
21:32 3.1 °C 1.6 °C 1030.7 hPa WNW 4.8 km/h 8.0 km/h 90 % 0.0 mm
21:42 2.9 °C 1.4 °C 1030.7 hPa WNW 6.4 km/h 9.7 km/h 90 % 0.0 mm
21:47 2.8 °C 1.5 °C 1030.7 hPa West 4.8 km/h 9.7 km/h 91 % 0.0 mm
21:52 2.9 °C 1.6 °C 1030.7 hPa West 4.8 km/h 9.7 km/h 91 % 0.0 mm
21:57 2.9 °C 1.6 °C 1030.7 hPa West 6.4 km/h 8.0 km/h 91 % 0.0 mm
22:07 2.8 °C 1.5 °C 1030.7 hPa Calm   6.4 km/h 91 % 0.0 mm
22:12 2.7 °C 1.4 °C 1030.7 hPa Calm   6.4 km/h 91 % 0.0 mm
22:17 2.7 °C 1.4 °C 1030.7 hPa Calm   4.8 km/h 91 % 0.0 mm
22:27 2.7 °C 1.4 °C 1030.7 hPa Calm   3.2 km/h 91 % 0.0 mm
22:32 2.7 °C 1.4 °C 1030.7 hPa Calm   3.2 km/h 91 % 0.0 mm
22:37 2.5 °C 1.2 °C 1030.7 hPa Calm   1.6 km/h 91 % 0.0 mm
22:42 2.3 °C 1.0 °C 1030.7 hPa Calm   1.6 km/h 91 % 0.0 mm
22:47 2.4 °C 1.2 °C 1030.7 hPa Calm   1.6 km/h 92 % 0.0 mm
22:52 2.4 °C 1.2 °C 1030.7 hPa Calm   1.6 km/h 92 % 0.0 mm
22:57 2.2 °C 1.0 °C 1030.7 hPa Calm   1.6 km/h 92 % 0.0 mm
23:02 1.9 °C 0.7 °C 1030.7 hPa Calm   1.6 km/h 92 % 0.0 mm
23:12 1.6 °C 0.6 °C 1030.7 hPa Calm   3.2 km/h 93 % 0.0 mm
23:22 1.0 °C -0.2 °C 1030.7 hPa Calm   4.8 km/h 92 % 0.0 mm
23:32 1.3 °C 0.6 °C 1030.7 hPa Calm   4.8 km/h 95 % 0.0 mm
23:37 1.4 °C 0.7 °C 1030.7 hPa SW 1.6 km/h 4.8 km/h 95 % 0.0 mm
23:42 1.4 °C 0.7 °C 1031.0 hPa WSW 1.6 km/h 4.8 km/h 95 % 0.0 mm
23:47 1.3 °C 0.4 °C 1031.0 hPa SW 1.6 km/h 3.2 km/h 94 % 0.0 mm
23:52 1.2 °C 0.3 °C 1031.0 hPa West 3.2 km/h 3.2 km/h 94 % 0.0 mm
23:57 1.3 °C 0.6 °C 1031.0 hPa West 1.6 km/h 4.8 km/h 95 % 0.0 mm
Meteo18
Compliments of Weather Underground - 4 mb

Script developed by  Jim McMurry - jmcmurry@mwt.net Adapted for the template by  Wim van der Kuil - Leuven-Template.eu

You find our weather info also at:

European Weather Network

Weather Underground

Equipment we use:

Weather-station
Davis Vue

Weather-program
Meteohub

Weather-server
Raspberry PI 2 B+

Provider
1 and 1

Davis Vue

Meteohub

Raspberry PI 2 B+

1 and 1